sensor_id;sensor_type;location;lat;lon;timestamp;P1;durP1;ratioP1;P2;durP2;ratioP2
60257;SDS011;46115;44.484;11.314;2023-02-01T00:02:46;5.20;;;3.60;;
60257;SDS011;46115;44.484;11.314;2023-02-01T00:10:58;6.83;;;3.53;;
60257;SDS011;46115;44.484;11.314;2023-02-01T00:15:02;9.30;;;3.80;;
60257;SDS011;46115;44.484;11.314;2023-02-01T00:19:05;8.20;;;3.70;;
60257;SDS011;46115;44.484;11.314;2023-02-01T00:23:09;8.77;;;4.10;;
60257;SDS011;46115;44.484;11.314;2023-02-01T00:27:12;9.73;;;3.90;;
60257;SDS011;46115;44.484;11.314;2023-02-01T00:31:18;6.38;;;4.00;;
60257;SDS011;46115;44.484;11.314;2023-02-01T00:39:22;8.30;;;3.97;;
60257;SDS011;46115;44.484;11.314;2023-02-01T00:43:26;5.10;;;3.42;;
60257;SDS011;46115;44.484;11.314;2023-02-01T00:47:28;7.47;;;3.80;;
60257;SDS011;46115;44.484;11.314;2023-02-01T00:55:33;5.33;;;3.13;;
60257;SDS011;46115;44.484;11.314;2023-02-01T00:59:43;7.68;;;3.45;;
60257;SDS011;46115;44.484;11.314;2023-02-01T01:03:47;7.07;;;3.55;;
60257;SDS011;46115;44.484;11.314;2023-02-01T01:07:51;5.55;;;3.58;;
60257;SDS011;46115;44.484;11.314;2023-02-01T01:15:59;6.93;;;2.97;;
60257;SDS011;46115;44.484;11.314;2023-02-01T01:20:03;7.00;;;3.85;;
60257;SDS011;46115;44.484;11.314;2023-02-01T01:24:06;7.53;;;3.70;;
60257;SDS011;46115;44.484;11.314;2023-02-01T01:28:08;5.82;;;3.33;;
60257;SDS011;46115;44.484;11.314;2023-02-01T01:32:12;5.95;;;3.17;;
60257;SDS011;46115;44.484;11.314;2023-02-01T01:36:14;7.20;;;3.78;;
60257;SDS011;46115;44.484;11.314;2023-02-01T01:49:02;7.95;;;3.25;;
60257;SDS011;46115;44.484;11.314;2023-02-01T01:53:11;7.30;;;3.55;;
60257;SDS011;46115;44.484;11.314;2023-02-01T01:57:16;7.57;;;3.55;;
60257;SDS011;46115;44.484;11.314;2023-02-01T02:01:22;6.97;;;3.47;;
60257;SDS011;46115;44.484;11.314;2023-02-01T02:05:26;7.00;;;3.40;;
60257;SDS011;46115;44.484;11.314;2023-02-01T02:09:30;7.05;;;3.53;;
60257;SDS011;46115;44.484;11.314;2023-02-01T02:13:34;7.93;;;3.50;;
60257;SDS011;46115;44.484;11.314;2023-02-01T02:17:40;8.00;;;3.45;;
60257;SDS011;46115;44.484;11.314;2023-02-01T02:21:54;6.97;;;3.67;;
60257;SDS011;46115;44.484;11.314;2023-02-01T02:26:16;6.55;;;3.80;;
60257;SDS011;46115;44.484;11.314;2023-02-01T02:35:08;8.15;;;3.95;;
60257;SDS011;46115;44.484;11.314;2023-02-01T02:39:20;7.35;;;3.55;;
60257;SDS011;46115;44.484;11.314;2023-02-01T02:43:29;5.88;;;3.30;;
60257;SDS011;46115;44.484;11.314;2023-02-01T02:47:57;6.63;;;3.65;;
60257;SDS011;46115;44.484;11.314;2023-02-01T02:52:08;6.07;;;3.60;;
60257;SDS011;46115;44.484;11.314;2023-02-01T02:56:47;6.28;;;3.70;;
60257;SDS011;46115;44.484;11.314;2023-02-01T03:01:09;6.43;;;3.50;;
60257;SDS011;46115;44.484;11.314;2023-02-01T03:05:31;8.18;;;3.70;;
60257;SDS011;46115;44.484;11.314;2023-02-01T03:09:36;6.80;;;3.53;;
60257;SDS011;46115;44.484;11.314;2023-02-01T03:13:42;6.47;;;3.83;;
60257;SDS011;46115;44.484;11.314;2023-02-01T03:17:47;9.55;;;3.90;;
60257;SDS011;46115;44.484;11.314;2023-02-01T03:21:52;8.85;;;4.07;;
60257;SDS011;46115;44.484;11.314;2023-02-01T03:26:01;6.55;;;3.88;;
60257;SDS011;46115;44.484;11.314;2023-02-01T03:30:06;9.18;;;4.38;;
60257;SDS011;46115;44.484;11.314;2023-02-01T03:34:13;8.10;;;3.80;;
60257;SDS011;46115;44.484;11.314;2023-02-01T03:38:18;6.97;;;4.22;;
60257;SDS011;46115;44.484;11.314;2023-02-01T03:42:26;7.97;;;3.67;;
60257;SDS011;46115;44.484;11.314;2023-02-01T03:46:35;8.65;;;4.30;;
60257;SDS011;46115;44.484;11.314;2023-02-01T03:50:43;9.23;;;4.07;;
60257;SDS011;46115;44.484;11.314;2023-02-01T03:54:50;9.15;;;4.53;;
60257;SDS011;46115;44.484;11.314;2023-02-01T03:58:56;9.02;;;3.97;;
60257;SDS011;46115;44.484;11.314;2023-02-01T04:07:09;11.63;;;4.23;;
60257;SDS011;46115;44.484;11.314;2023-02-01T04:11:12;9.85;;;4.10;;
60257;SDS011;46115;44.484;11.314;2023-02-01T04:19:18;10.05;;;3.80;;
60257;SDS011;46115;44.484;11.314;2023-02-01T04:23:20;9.30;;;4.10;;
60257;SDS011;46115;44.484;11.314;2023-02-01T04:27:22;9.77;;;4.35;;
60257;SDS011;46115;44.484;11.314;2023-02-01T04:35:28;11.45;;;4.28;;
60257;SDS011;46115;44.484;11.314;2023-02-01T04:39:30;11.70;;;5.00;;
60257;SDS011;46115;44.484;11.314;2023-02-01T04:43:32;10.95;;;4.68;;
60257;SDS011;46115;44.484;11.314;2023-02-01T04:47:36;11.35;;;4.60;;
60257;SDS011;46115;44.484;11.314;2023-02-01T04:51:39;9.70;;;4.10;;
60257;SDS011;46115;44.484;11.314;2023-02-01T04:55:42;11.38;;;4.88;;
60257;SDS011;46115;44.484;11.314;2023-02-01T04:59:45;9.93;;;4.00;;
60257;SDS011;46115;44.484;11.314;2023-02-01T05:07:50;8.40;;;4.20;;
60257;SDS011;46115;44.484;11.314;2023-02-01T05:16:12;10.63;;;4.00;;
60257;SDS011;46115;44.484;11.314;2023-02-01T05:20:16;10.32;;;4.22;;
60257;SDS011;46115;44.484;11.314;2023-02-01T05:24:19;7.72;;;4.00;;
60257;SDS011;46115;44.484;11.314;2023-02-01T05:32:23;12.43;;;4.50;;
60257;SDS011;46115;44.484;11.314;2023-02-01T05:40:29;8.20;;;3.90;;
60257;SDS011;46115;44.484;11.314;2023-02-01T05:48:33;10.73;;;4.70;;
60257;SDS011;46115;44.484;11.314;2023-02-01T05:56:39;10.13;;;4.40;;
60257;SDS011;46115;44.484;11.314;2023-02-01T06:00:41;7.75;;;4.28;;
60257;SDS011;46115;44.484;11.314;2023-02-01T06:08:47;9.23;;;4.07;;
60257;SDS011;46115;44.484;11.314;2023-02-01T06:12:49;11.20;;;4.40;;
60257;SDS011;46115;44.484;11.314;2023-02-01T06:16:52;27.45;;;5.05;;
60257;SDS011;46115;44.484;11.314;2023-02-01T06:20:55;8.68;;;3.80;;
60257;SDS011;46115;44.484;11.314;2023-02-01T06:24:59;9.90;;;4.30;;
60257;SDS011;46115;44.484;11.314;2023-02-01T06:29:02;7.65;;;4.10;;
60257;SDS011;46115;44.484;11.314;2023-02-01T06:37:06;7.07;;;4.13;;
60257;SDS011;46115;44.484;11.314;2023-02-01T06:41:10;6.30;;;3.90;;
60257;SDS011;46115;44.484;11.314;2023-02-01T06:45:12;9.45;;;3.80;;
60257;SDS011;46115;44.484;11.314;2023-02-01T06:53:16;8.50;;;4.03;;
60257;SDS011;46115;44.484;11.314;2023-02-01T06:57:20;13.00;;;3.97;;
60257;SDS011;46115;44.484;11.314;2023-02-01T07:01:22;9.88;;;4.18;;
60257;SDS011;46115;44.484;11.314;2023-02-01T07:05:25;7.80;;;3.88;;
60257;SDS011;46115;44.484;11.314;2023-02-01T07:13:30;8.60;;;4.03;;
60257;SDS011;46115;44.484;11.314;2023-02-01T07:17:33;8.45;;;4.07;;
60257;SDS011;46115;44.484;11.314;2023-02-01T07:21:35;10.68;;;3.95;;
60257;SDS011;46115;44.484;11.314;2023-02-01T07:29:41;9.53;;;4.60;;
60257;SDS011;46115;44.484;11.314;2023-02-01T07:33:43;6.40;;;3.78;;
60257;SDS011;46115;44.484;11.314;2023-02-01T07:37:46;10.40;;;3.92;;
60257;SDS011;46115;44.484;11.314;2023-02-01T07:41:48;8.85;;;4.20;;
60257;SDS011;46115;44.484;11.314;2023-02-01T07:45:53;8.95;;;3.80;;
60257;SDS011;46115;44.484;11.314;2023-02-01T07:49:56;11.07;;;4.55;;
60257;SDS011;46115;44.484;11.314;2023-02-01T07:58:01;7.72;;;4.40;;
60257;SDS011;46115;44.484;11.314;2023-02-01T08:02:04;8.82;;;4.03;;
60257;SDS011;46115;44.484;11.314;2023-02-01T08:06:07;9.43;;;4.65;;
60257;SDS011;46115;44.484;11.314;2023-02-01T08:10:10;8.52;;;5.03;;
60257;SDS011;46115;44.484;11.314;2023-02-01T08:14:13;10.88;;;5.78;;
60257;SDS011;46115;44.484;11.314;2023-02-01T08:22:19;15.02;;;7.47;;
60257;SDS011;46115;44.484;11.314;2023-02-01T08:30:24;14.10;;;8.73;;
60257;SDS011;46115;44.484;11.314;2023-02-01T08:34:29;15.35;;;8.77;;
60257;SDS011;46115;44.484;11.314;2023-02-01T08:38:32;17.20;;;9.15;;
60257;SDS011;46115;44.484;11.314;2023-02-01T08:42:36;15.18;;;7.13;;
60257;SDS011;46115;44.484;11.314;2023-02-01T08:46:52;16.23;;;8.60;;
60257;SDS011;46115;44.484;11.314;2023-02-01T08:50:56;15.27;;;8.32;;
60257;SDS011;46115;44.484;11.314;2023-02-01T08:54:58;15.68;;;8.68;;
60257;SDS011;46115;44.484;11.314;2023-02-01T08:59:01;14.68;;;8.95;;
60257;SDS011;46115;44.484;11.314;2023-02-01T09:03:03;22.75;;;11.32;;
60257;SDS011;46115;44.484;11.314;2023-02-01T09:07:07;20.33;;;12.77;;
60257;SDS011;46115;44.484;11.314;2023-02-01T09:11:11;23.42;;;14.13;;
60257;SDS011;46115;44.484;11.314;2023-02-01T09:15:14;25.52;;;14.38;;
60257;SDS011;46115;44.484;11.314;2023-02-01T09:19:17;22.15;;;13.23;;
60257;SDS011;46115;44.484;11.314;2023-02-01T09:23:20;25.83;;;13.82;;
60257;SDS011;46115;44.484;11.314;2023-02-01T09:27:23;25.63;;;17.17;;
60257;SDS011;46115;44.484;11.314;2023-02-01T09:31:25;31.50;;;21.88;;
60257;SDS011;46115;44.484;11.314;2023-02-01T09:35:27;32.92;;;23.70;;
60257;SDS011;46115;44.484;11.314;2023-02-01T09:39:31;31.63;;;22.48;;
60257;SDS011;46115;44.484;11.314;2023-02-01T09:43:36;31.08;;;22.50;;
60257;SDS011;46115;44.484;11.314;2023-02-01T09:47:46;28.42;;;20.83;;
60257;SDS011;46115;44.484;11.314;2023-02-01T09:51:50;29.48;;;19.63;;
60257;SDS011;46115;44.484;11.314;2023-02-01T09:55:58;28.02;;;17.65;;
60257;SDS011;46115;44.484;11.314;2023-02-01T10:00:04;29.30;;;17.88;;
60257;SDS011;46115;44.484;11.314;2023-02-01T10:04:16;33.67;;;21.10;;
60257;SDS011;46115;44.484;11.314;2023-02-01T10:08:20;39.50;;;20.92;;
60257;SDS011;46115;44.484;11.314;2023-02-01T10:17:20;32.03;;;20.13;;
60257;SDS011;46115;44.484;11.314;2023-02-01T10:21:39;31.85;;;20.88;;
60257;SDS011;46115;44.484;11.314;2023-02-01T10:25:50;34.70;;;21.42;;
60257;SDS011;46115;44.484;11.314;2023-02-01T10:29:58;36.13;;;20.83;;
60257;SDS011;46115;44.484;11.314;2023-02-01T10:34:10;29.55;;;20.65;;
60257;SDS011;46115;44.484;11.314;2023-02-01T10:38:20;34.20;;;20.88;;
60257;SDS011;46115;44.484;11.314;2023-02-01T10:42:28;29.23;;;19.08;;
60257;SDS011;46115;44.484;11.314;2023-02-01T10:46:33;29.75;;;19.05;;
60257;SDS011;46115;44.484;11.314;2023-02-01T10:50:38;31.00;;;19.10;;
60257;SDS011;46115;44.484;11.314;2023-02-01T10:54:46;30.85;;;18.75;;
60257;SDS011;46115;44.484;11.314;2023-02-01T10:58:48;30.33;;;17.95;;
60257;SDS011;46115;44.484;11.314;2023-02-01T11:02:52;31.20;;;18.13;;
60257;SDS011;46115;44.484;11.314;2023-02-01T11:07:05;30.75;;;17.55;;
60257;SDS011;46115;44.484;11.314;2023-02-01T11:11:10;27.67;;;16.85;;
60257;SDS011;46115;44.484;11.314;2023-02-01T11:15:14;22.92;;;14.18;;
60257;SDS011;46115;44.484;11.314;2023-02-01T11:19:21;27.60;;;16.00;;
60257;SDS011;46115;44.484;11.314;2023-02-01T11:27:29;26.63;;;14.75;;
60257;SDS011;46115;44.484;11.314;2023-02-01T11:31:34;24.40;;;13.02;;
60257;SDS011;46115;44.484;11.314;2023-02-01T11:35:37;23.08;;;13.07;;
60257;SDS011;46115;44.484;11.314;2023-02-01T11:39:42;29.98;;;15.23;;
60257;SDS011;46115;44.484;11.314;2023-02-01T11:43:51;24.02;;;13.75;;
60257;SDS011;46115;44.484;11.314;2023-02-01T11:47:55;23.55;;;14.77;;
60257;SDS011;46115;44.484;11.314;2023-02-01T11:52:03;23.42;;;13.93;;
60257;SDS011;46115;44.484;11.314;2023-02-01T11:56:18;25.73;;;14.35;;
60257;SDS011;46115;44.484;11.314;2023-02-01T12:00:31;24.48;;;13.98;;
60257;SDS011;46115;44.484;11.314;2023-02-01T12:09:22;23.73;;;13.80;;
60257;SDS011;46115;44.484;11.314;2023-02-01T12:13:41;27.45;;;14.07;;
60257;SDS011;46115;44.484;11.314;2023-02-01T12:17:59;26.27;;;14.18;;
60257;SDS011;46115;44.484;11.314;2023-02-01T12:22:22;31.08;;;14.50;;
60257;SDS011;46115;44.484;11.314;2023-02-01T12:26:42;23.45;;;13.93;;
60257;SDS011;46115;44.484;11.314;2023-02-01T12:35:56;20.02;;;12.68;;
60257;SDS011;46115;44.484;11.314;2023-02-01T12:40:12;21.30;;;12.32;;
60257;SDS011;46115;44.484;11.314;2023-02-01T12:44:28;21.70;;;12.65;;
60257;SDS011;46115;44.484;11.314;2023-02-01T12:48:41;22.85;;;12.85;;
60257;SDS011;46115;44.484;11.314;2023-02-01T12:52:58;22.98;;;12.10;;
60257;SDS011;46115;44.484;11.314;2023-02-01T12:57:11;22.88;;;12.82;;
60257;SDS011;46115;44.484;11.314;2023-02-01T13:01:18;23.08;;;13.02;;
60257;SDS011;46115;44.484;11.314;2023-02-01T13:05:27;22.52;;;13.35;;
60257;SDS011;46115;44.484;11.314;2023-02-01T13:09:33;20.45;;;11.80;;
60257;SDS011;46115;44.484;11.314;2023-02-01T13:13:44;23.88;;;13.55;;
60257;SDS011;46115;44.484;11.314;2023-02-01T13:17:50;20.67;;;12.18;;
60257;SDS011;46115;44.484;11.314;2023-02-01T13:21:57;24.95;;;12.70;;
60257;SDS011;46115;44.484;11.314;2023-02-01T13:26:03;21.60;;;12.52;;
60257;SDS011;46115;44.484;11.314;2023-02-01T13:30:07;20.77;;;12.60;;
60257;SDS011;46115;44.484;11.314;2023-02-01T13:34:29;19.10;;;11.35;;
60257;SDS011;46115;44.484;11.314;2023-02-01T13:39:02;21.45;;;11.07;;
60257;SDS011;46115;44.484;11.314;2023-02-01T13:43:22;20.00;;;12.13;;
60257;SDS011;46115;44.484;11.314;2023-02-01T13:47:28;24.00;;;11.88;;
60257;SDS011;46115;44.484;11.314;2023-02-01T13:51:35;21.25;;;12.10;;
60257;SDS011;46115;44.484;11.314;2023-02-01T13:55:45;22.05;;;11.73;;
60257;SDS011;46115;44.484;11.314;2023-02-01T13:59:51;17.75;;;11.15;;
60257;SDS011;46115;44.484;11.314;2023-02-01T14:03:56;21.05;;;11.95;;
60257;SDS011;46115;44.484;11.314;2023-02-01T14:08:02;19.73;;;11.45;;
60257;SDS011;46115;44.484;11.314;2023-02-01T14:21:46;19.08;;;11.27;;
60257;SDS011;46115;44.484;11.314;2023-02-01T14:30:25;23.50;;;12.70;;
60257;SDS011;46115;44.484;11.314;2023-02-01T14:34:30;22.05;;;12.63;;
60257;SDS011;46115;44.484;11.314;2023-02-01T14:38:37;22.05;;;12.25;;
60257;SDS011;46115;44.484;11.314;2023-02-01T14:42:43;23.30;;;12.80;;
60257;SDS011;46115;44.484;11.314;2023-02-01T14:47:08;26.90;;;13.70;;
60257;SDS011;46115;44.484;11.314;2023-02-01T14:51:25;21.27;;;12.30;;
60257;SDS011;46115;44.484;11.314;2023-02-01T14:55:30;22.63;;;13.55;;
60257;SDS011;46115;44.484;11.314;2023-02-01T14:59:37;22.05;;;12.98;;
60257;SDS011;46115;44.484;11.314;2023-02-01T15:03:43;25.23;;;13.40;;
60257;SDS011;46115;44.484;11.314;2023-02-01T15:07:51;23.23;;;13.10;;
60257;SDS011;46115;44.484;11.314;2023-02-01T15:11:56;21.50;;;12.10;;
60257;SDS011;46115;44.484;11.314;2023-02-01T15:16:01;22.52;;;12.77;;
60257;SDS011;46115;44.484;11.314;2023-02-01T15:20:13;23.30;;;12.23;;
60257;SDS011;46115;44.484;11.314;2023-02-01T15:24:21;27.13;;;13.75;;
60257;SDS011;46115;44.484;11.314;2023-02-01T15:28:25;23.35;;;12.77;;
60257;SDS011;46115;44.484;11.314;2023-02-01T15:32:28;21.85;;;12.77;;
60257;SDS011;46115;44.484;11.314;2023-02-01T15:36:33;27.83;;;12.90;;
60257;SDS011;46115;44.484;11.314;2023-02-01T15:40:38;22.90;;;12.20;;
60257;SDS011;46115;44.484;11.314;2023-02-01T15:44:55;24.30;;;12.52;;
60257;SDS011;46115;44.484;11.314;2023-02-01T15:49:11;23.50;;;12.18;;
60257;SDS011;46115;44.484;11.314;2023-02-01T15:53:28;25.27;;;12.18;;
60257;SDS011;46115;44.484;11.314;2023-02-01T15:57:32;25.83;;;13.38;;
60257;SDS011;46115;44.484;11.314;2023-02-01T16:01:37;23.55;;;12.68;;
60257;SDS011;46115;44.484;11.314;2023-02-01T16:05:40;23.33;;;12.82;;
60257;SDS011;46115;44.484;11.314;2023-02-01T16:09:51;20.55;;;12.38;;
60257;SDS011;46115;44.484;11.314;2023-02-01T16:13:56;22.42;;;12.55;;
60257;SDS011;46115;44.484;11.314;2023-02-01T16:17:58;21.42;;;11.50;;
60257;SDS011;46115;44.484;11.314;2023-02-01T16:26:04;21.80;;;11.47;;
60257;SDS011;46115;44.484;11.314;2023-02-01T16:30:08;23.90;;;12.25;;
60257;SDS011;46115;44.484;11.314;2023-02-01T16:34:13;20.77;;;11.40;;
60257;SDS011;46115;44.484;11.314;2023-02-01T16:38:18;24.88;;;12.55;;
60257;SDS011;46115;44.484;11.314;2023-02-01T16:42:24;21.20;;;11.57;;
60257;SDS011;46115;44.484;11.314;2023-02-01T23:06:08;8.45;;;3.67;;
60257;SDS011;46115;44.484;11.314;2023-02-01T23:10:10;7.32;;;3.10;;
60257;SDS011;46115;44.484;11.314;2023-02-01T23:14:13;6.40;;;3.40;;
60257;SDS011;46115;44.484;11.314;2023-02-01T23:18:16;10.80;;;3.50;;
60257;SDS011;46115;44.484;11.314;2023-02-01T23:26:23;8.13;;;3.40;;
60257;SDS011;46115;44.484;11.314;2023-02-01T23:30:28;7.25;;;3.33;;
60257;SDS011;46115;44.484;11.314;2023-02-01T23:38:34;7.90;;;3.20;;
60257;SDS011;46115;44.484;11.314;2023-02-01T23:42:37;7.15;;;3.30;;
60257;SDS011;46115;44.484;11.314;2023-02-01T23:46:40;5.78;;;3.20;;
60257;SDS011;46115;44.484;11.314;2023-02-01T23:50:46;10.38;;;3.40;;
60257;SDS011;46115;44.484;11.314;2023-02-01T23:54:50;6.68;;;3.20;;
60257;SDS011;46115;44.484;11.314;2023-02-01T23:58:53;6.82;;;3.42;;
